Guadalajara Don Miguel, Mexico

7:27 PM CST on February 09, 2016 (GMT -0600)
Don Miguel Hidalgo International | | Change Station
CLOSE
Current Station
Airport
Location: Guadalajara Don Miguel,
Elevation: 5013 ft
Nearby Weather Stations

Elev 5013 ft 20.52 °N, 103.31 °W | Updated 37 minutes ago

Mostly Cloudy
Mostly Cloudy
63 °F
Feels Like 63 °F
N
7
Wind Variable Wind from SSE

Today
High -- | Low -- °F
--% Chance of Precip.
Yesterday
High -- | Low -- °F
Precip. -- in
Pressure 30.23 in
Visibility 8.0 miles
Clouds Scattered Clouds 3000 ft
Mostly Cloudy 10000 ft
Dew Point 30 °F
Humidity 30%
Rainfall 0.00 in
Snow Depth Not available.
7:26 AM 6:48 PM
Waxing Crescent, 3% visible
METAR MMGL 100050Z 16006KT 8SM SCT030 BKN100 17/M01 A3023 RMK 8/570
Pressure 30.23 in
Visibility 8.0 miles
Clouds Scattered Clouds 3000 ft
Mostly Cloudy 10000 ft
Dew Point 30 °F
Humidity 30%
Rainfall 0.00 in
Snow Depth Not available.
7:26 AM 6:48 PM
Waxing Crescent, 3% visible
METAR MMGL 100050Z 16006KT 8SM SCT030 BKN100 17/M01 A3023 RMK 8/570

10-Day Weather Forecast

No radar image for this location.
×

Almanac

Astronomy

Feb. 09, 2016 Rise Set
Actual Time
Civil Twilight
Nautical Twilight
Astronomical Twilight
Moon
Length of Visible Light
Length of Day
Tomorrow will be .
, % of the Moon is Illuminated

Today's Extremes

Country Highs Country Lows

Community

WunderPhotos

Upload Photos

1,891,758 photos uploaded!

WunderBlog® & News

Nearby

Air Quality

  Air Quality AQ Index Pollutant
Not available.

Snow Depth

Station Depth Elevation

Earthquake Activity

City Distance Mag. Time & Date
Minimum magnitude displayed is 2.5.

Coastal Water Temperatures

Place Temperature

Stations

Nearby Weather Stations

Station Location Temp. Windchill Dew Point Humidity Wind Precip. Elev Updated Type